createdAt,value
2018-02-01T07:02:06.052Z,88.60
2018-02-01T07:04:33.634Z,89.30
2018-02-01T07:07:01.192Z,89.30
2018-02-01T07:09:28.735Z,89.20
2018-02-01T07:11:56.378Z,89.50
2018-02-01T07:14:38.357Z,89.00
2018-02-01T07:17:22.016Z,88.60
2018-02-01T07:19:54.560Z,89.00
2018-02-01T07:22:24.196Z,89.50
2018-02-01T07:24:57.561Z,88.90
2018-02-01T07:27:25.812Z,89.00
2018-02-01T07:29:57.662Z,88.50
2018-02-01T07:32:29.300Z,88.90
2018-02-01T07:35:06.973Z,88.70
2018-02-01T07:37:36.466Z,88.50
2018-02-01T07:40:06.864Z,88.20
2018-02-01T07:42:36.328Z,88.50
2018-02-01T07:45:07.681Z,88.70
2018-02-01T07:47:36.532Z,88.40
2018-02-01T07:50:05.065Z,88.70
2018-02-01T07:52:33.439Z,88.80
2018-02-01T07:55:05.145Z,88.90
2018-02-01T08:00:16.137Z,88.40
2018-02-01T08:05:42.834Z,87.90
2018-02-01T08:25:53.805Z,87.50
2018-02-01T08:33:10.580Z,87.50
2018-02-01T08:35:51.732Z,86.00
2018-02-01T08:54:42.928Z,85.80
2018-02-01T09:00:24.217Z,85.60
2018-02-01T09:03:17.787Z,84.80
2018-02-01T09:11:50.538Z,83.10
2018-02-01T09:17:28.503Z,84.30
2018-02-01T09:47:28.141Z,82.60
2018-02-01T09:49:57.226Z,81.50
2018-02-01T09:52:25.837Z,81.90
2018-02-01T09:55:09.409Z,80.30
2018-02-01T10:00:22.663Z,80.40
2018-02-01T10:03:00.986Z,80.00
2018-02-01T10:05:29.030Z,79.60
2018-02-01T10:08:06.960Z,78.40
2018-02-01T10:10:37.464Z,78.30
2018-02-01T10:18:40.404Z,75.90
2018-02-01T10:24:15.756Z,73.60
2018-02-01T10:26:51.134Z,74.80
2018-02-01T10:29:25.840Z,74.50
